Time;durP1;ratioP1;P1;durP2;ratioP2;P2;SDS_P1;SDS_P2;PMS_P1;PMS_P2;Temp;Humidity;BMP_temperature;BMP_pressure;BME280_temperature;BME280_humidity;BME280_pressure;Samples;Min_cycle;Max_cycle;Signal;HPM_P1;HPM_P2
2022/09/19 00:00:42;;;;;;;;;1.00;0.00;;;;;;;;4901529;28;45566;-69
2022/09/19 00:03:08;;;;;;;;;1.50;0.00;;;;;;;;4902564;29;47491;-70
2022/09/19 00:05:33;;;;;;;;;1.50;0.00;;;;;;;;4902645;29;45397;-70
2022/09/19 00:07:58;;;;;;;;;3.00;0.00;;;;;;;;4902267;29;45370;-68
2022/09/19 00:10:25;;;;;;;;;4.00;2.00;;;;;;;;4902947;29;45323;-69
2022/09/19 00:12:51;;;;;;;;;3.00;1.00;;;;;;;;4902544;29;45318;-70
2022/09/19 00:15:16;;;;;;;;;2.50;1.00;;;;;;;;4902501;29;45357;-69
2022/09/19 00:17:42;;;;;;;;;0.00;0.00;;;;;;;;4901471;28;45360;-70
2022/09/19 00:20:07;;;;;;;;;0.00;0.00;;;;;;;;4902760;29;45440;-70
2022/09/19 00:22:32;;;;;;;;;1.25;0.00;;;;;;;;4914297;28;46063;-70
2022/09/19 00:24:57;;;;;;;;;2.00;0.00;;;;;;;;4921486;28;45417;-70
2022/09/19 00:27:25;;;;;;;;;4.67;2.00;;;;;;;;4921651;28;45764;-70
2022/09/19 00:29:51;;;;;;;;;2.00;1.00;;;;;;;;4921516;28;45599;-70
2022/09/19 00:32:16;;;;;;;;;2.00;0.00;;;;;;;;4921244;28;47436;-71
2022/09/19 00:34:42;;;;;;;;;1.00;0.00;;;;;;;;4920212;28;45400;-71
2022/09/19 00:37:07;;;;;;;;;1.50;0.00;;;;;;;;4921402;28;45313;-70
2022/09/19 00:39:33;;;;;;;;;0.00;0.00;;;;;;;;4921502;28;45579;-70
2022/09/19 00:41:58;;;;;;;;;4.67;2.00;;;;;;;;4920991;28;46631;-70
2022/09/19 00:44:23;;;;;;;;;0.75;0.75;;;;;;;;4921209;28;45389;-70
2022/09/19 00:46:55;;;;;;;;;1.00;0.00;;;;;;;;4921384;28;45455;-70
2022/09/19 00:49:22;;;;;;;;;3.00;2.33;;;;;;;;4921448;28;45438;-70
2022/09/19 00:51:52;;;;;;;;;0.75;0.00;;;;;;;;4920067;28;46336;-70
2022/09/19 00:54:21;;;;;;;;;0.00;0.00;;;;;;;;4921149;28;45290;-70
2022/09/19 00:56:51;;;;;;;;;2.00;0.00;;;;;;;;4921119;28;45404;-70
2022/09/19 00:59:16;;;;;;;;;0.00;0.00;;;;;;;;4921193;28;45471;-71
2022/09/19 01:01:42;;;;;;;;;0.00;0.00;;;;;;;;4920135;28;46222;-70
2022/09/19 01:04:16;;;;;;;;;3.00;0.00;;;;;;;;4903536;28;45418;-70
2022/09/19 01:07:00;;;;;;;;;0.00;0.00;;;;;;;;4920986;28;45370;-70
2022/09/19 01:09:55;;;;;;;;;2.00;0.00;;;;;;;;4900659;29;45429;-70
2022/09/19 01:12:44;;;;;;;;;0.50;0.00;;;;;;;;4842993;29;45415;-70
2022/09/19 01:15:24;;;;;;;;;0.00;0.00;;;;;;;;4843034;29;45449;-71
2022/09/19 01:17:57;;;;;;;;;0.50;0.25;;;;;;;;4843321;29;45385;-68
2022/09/19 01:20:31;;;;;;;;;0.50;0.00;;;;;;;;4842953;29;45515;-68
2022/09/19 01:23:15;;;;;;;;;3.00;1.00;;;;;;;;4827784;29;46590;-68
2022/09/19 01:25:46;;;;;;;;;0.00;0.00;;;;;;;;4823523;29;45576;-68
2022/09/19 01:28:17;;;;;;;;;0.50;0.50;;;;;;;;4824639;29;45420;-68
2022/09/19 01:30:47;;;;;;;;;1.00;1.00;;;;;;;;4823708;29;45467;-68
2022/09/19 01:33:17;;;;;;;;;0.75;0.00;;;;;;;;4824297;29;47613;-68
2022/09/19 01:35:45;;;;;;;;;3.00;0.00;;;;;;;;4824507;29;45497;-68
2022/09/19 01:38:13;;;;;;;;;0.50;0.00;;;;;;;;4824675;29;45267;-68
2022/09/19 01:40:39;;;;;;;;;1.75;0.00;;;;;;;;4824656;29;45314;-67
2022/09/19 01:43:11;;;;;;;;;1.00;0.00;;;;;;;;4824347;29;46649;-67
2022/09/19 01:45:37;;;;;;;;;2.00;0.00;;;;;;;;4824196;29;45407;-68
2022/09/19 01:48:06;;;;;;;;;1.00;1.00;;;;;;;;4840484;28;45772;-68
2022/09/19 01:50:38;;;;;;;;;0.25;0.25;;;;;;;;4920455;28;45447;-68
2022/09/19 01:53:06;;;;;;;;;0.50;0.50;;;;;;;;4920015;28;46292;-67
2022/09/19 01:55:40;;;;;;;;;0.00;0.00;;;;;;;;4920180;28;45298;-67
2022/09/19 01:58:16;;;;;;;;;3.00;0.00;;;;;;;;4920259;28;45377;-67
2022/09/19 02:00:52;;;;;;;;;0.00;0.00;;;;;;;;4920128;28;45452;-67
2022/09/19 02:03:30;;;;;;;;;0.00;0.00;;;;;;;;4902770;28;46844;-67
2022/09/19 02:06:00;;;;;;;;;0.75;0.00;;;;;;;;4918191;28;45354;-68
2022/09/19 02:08:37;;;;;;;;;0.00;0.00;;;;;;;;4919998;28;45381;-68
2022/09/19 02:11:11;;;;;;;;;0.00;0.00;;;;;;;;4920435;28;45324;-68
2022/09/19 02:13:43;;;;;;;;;1.50;0.00;;;;;;;;4918140;28;45258;-68
2022/09/19 02:16:13;;;;;;;;;0.00;0.00;;;;;;;;4919722;28;45323;-68
2022/09/19 02:18:44;;;;;;;;;0.00;0.00;;;;;;;;4919976;28;45388;-68
2022/09/19 02:21:12;;;;;;;;;0.00;0.00;;;;;;;;4920015;28;45310;-68
2022/09/19 02:23:39;;;;;;;;;2.00;0.00;;;;;;;;4919663;28;46235;-68
2022/09/19 02:26:06;;;;;;;;;2.50;0.00;;;;;;;;4919658;28;45439;-68
2022/09/19 02:28:38;;;;;;;;;2.00;0.00;;;;;;;;4920151;28;45255;-68
2022/09/19 02:31:04;;;;;;;;;1.50;1.00;;;;;;;;4921027;28;45589;-68
2022/09/19 02:33:35;;;;;;;;;0.00;0.00;;;;;;;;4922236;28;45394;-68
2022/09/19 02:36:11;;;;;;;;;1.50;0.00;;;;;;;;4923092;28;45472;-68
2022/09/19 02:38:37;;;;;;;;;2.00;0.67;;;;;;;;4923208;28;45459;-68
2022/09/19 02:41:11;;;;;;;;;0.00;0.00;;;;;;;;4923282;28;45425;-68
2022/09/19 02:43:49;;;;;;;;;0.00;0.00;;;;;;;;4923172;28;45707;-68
2022/09/19 02:46:33;;;;;;;;;1.00;0.00;;;;;;;;4922852;28;45471;-68
2022/09/19 02:49:02;;;;;;;;;3.00;2.00;;;;;;;;4922961;28;45281;-67
2022/09/19 02:51:34;;;;;;;;;0.25;0.00;;;;;;;;4922060;28;45331;-68
2022/09/19 02:54:06;;;;;;;;;1.00;1.00;;;;;;;;4922822;28;45472;-68
2022/09/19 02:56:34;;;;;;;;;2.00;0.75;;;;;;;;4922737;28;45436;-68
2022/09/19 02:59:06;;;;;;;;;2.00;0.75;;;;;;;;4922901;28;45487;-68
2022/09/19 03:01:32;;;;;;;;;1.00;0.00;;;;;;;;4922584;28;45524;-68
2022/09/19 03:04:12;;;;;;;;;0.75;0.00;;;;;;;;4922557;28;45388;-68
2022/09/19 03:06:40;;;;;;;;;0.00;0.00;;;;;;;;4922750;28;45244;-70
2022/09/19 03:09:08;;;;;;;;;0.00;0.00;;;;;;;;4921874;28;45356;-70
2022/09/19 03:11:36;;;;;;;;;0.25;0.25;;;;;;;;4922937;28;45367;-71
2022/09/19 03:14:01;;;;;;;;;1.25;0.50;;;;;;;;4922247;28;47328;-70
2022/09/19 03:16:38;;;;;;;;;0.00;0.00;;;;;;;;4922315;28;45432;-71
2022/09/19 03:19:07;;;;;;;;;0.75;0.00;;;;;;;;4922622;28;45325;-71
2022/09/19 03:21:33;;;;;;;;;2.50;0.50;;;;;;;;4918273;28;45860;-70
2022/09/19 03:23:59;;;;;;;;;0.00;0.00;;;;;;;;4902233;28;46261;-70
2022/09/19 03:26:27;;;;;;;;;0.50;0.00;;;;;;;;4903298;28;45418;-71
2022/09/19 03:28:54;;;;;;;;;0.00;0.00;;;;;;;;4902212;29;45332;-70
2022/09/19 03:31:19;;;;;;;;;0.00;0.00;;;;;;;;4903601;29;45297;-70
2022/09/19 03:33:46;;;;;;;;;1.50;1.00;;;;;;;;4902817;29;45466;-70
2022/09/19 03:36:11;;;;;;;;;3.33;0.00;;;;;;;;4903078;28;45413;-70
2022/09/19 03:38:44;;;;;;;;;0.00;0.00;;;;;;;;4903306;28;45456;-70
2022/09/19 03:41:09;;;;;;;;;1.00;0.00;;;;;;;;4901932;28;45459;-70
2022/09/19 03:43:35;;;;;;;;;0.00;0.00;;;;;;;;4902650;28;47259;-70
2022/09/19 03:46:00;;;;;;;;;2.67;1.00;;;;;;;;4903210;29;45524;-70
2022/09/19 03:48:26;;;;;;;;;18.33;18.33;;;;;;;;4902883;29;45345;-71
2022/09/19 03:50:51;;;;;;;;;4.00;2.67;;;;;;;;4903377;28;45327;-71
2022/09/19 03:53:17;;;;;;;;;2.50;1.00;;;;;;;;4902820;28;45405;-70
2022/09/19 03:55:42;;;;;;;;;1.00;1.00;;;;;;;;4902632;29;45401;-70
2022/09/19 03:58:10;;;;;;;;;1.00;1.00;;;;;;;;4902035;29;45769;-70
2022/09/19 04:00:35;;;;;;;;;0.00;0.00;;;;;;;;4902976;28;45301;-71
2022/09/19 04:03:00;;;;;;;;;1.00;1.00;;;;;;;;4902696;29;46003;-70
2022/09/19 04:05:26;;;;;;;;;0.33;0.33;;;;;;;;4902512;29;45326;-71
2022/09/19 04:07:51;;;;;;;;;3.33;1.00;;;;;;;;4902791;29;45474;-71
2022/09/19 04:10:16;;;;;;;;;1.25;1.00;;;;;;;;4902957;29;45382;-70
2022/09/19 04:12:42;;;;;;;;;1.00;1.00;;;;;;;;4901459;29;45657;-70
2022/09/19 04:15:07;;;;;;;;;0.00;0.00;;;;;;;;4902481;29;45210;-71
2022/09/19 04:17:33;;;;;;;;;6.50;0.75;;;;;;;;4902537;29;45210;-70
2022/09/19 04:19:58;;;;;;;;;3.00;3.00;;;;;;;;4902879;28;45353;-71
2022/09/19 04:22:23;;;;;;;;;4.00;1.00;;;;;;;;4901986;28;45289;-70
2022/09/19 04:24:49;;;;;;;;;1.75;1.75;;;;;;;;4902429;28;45373;-70
2022/09/19 04:27:14;;;;;;;;;1.25;1.00;;;;;;;;4902546;28;45464;-71
2022/09/19 04:29:43;;;;;;;;;1.00;0.00;;;;;;;;4902717;28;45269;-70
2022/09/19 04:32:08;;;;;;;;;2.00;2.00;;;;;;;;4901091;28;45505;-71
2022/09/19 04:34:33;;;;;;;;;2.00;2.00;;;;;;;;4902445;29;45537;-70
2022/09/19 04:37:03;;;;;;;;;1.00;1.00;;;;;;;;4902458;29;45404;-71
2022/09/19 04:39:29;;;;;;;;;3.33;1.00;;;;;;;;4902568;28;45222;-70
2022/09/19 04:41:55;;;;;;;;;1.00;1.00;;;;;;;;4901955;28;46806;-71
2022/09/19 04:44:21;;;;;;;;;2.50;1.00;;;;;;;;4902102;28;45330;-71
2022/09/19 04:46:47;;;;;;;;;2.75;1.00;;;;;;;;4901205;29;45537;-71
2022/09/19 04:49:13;;;;;;;;;2.50;1.00;;;;;;;;4902027;28;45419;-71
2022/09/19 04:51:38;;;;;;;;;4.75;3.00;;;;;;;;4901932;28;46988;-71
2022/09/19 04:54:05;;;;;;;;;1.00;1.00;;;;;;;;4901889;28;45412;-68
2022/09/19 04:56:30;;;;;;;;;1.00;1.00;;;;;;;;4902029;29;45392;-68
2022/09/19 04:58:55;;;;;;;;;1.00;1.00;;;;;;;;4902435;28;45503;-68
2022/09/19 05:01:22;;;;;;;;;3.00;1.00;;;;;;;;4900780;28;47044;-68
2022/09/19 05:03:48;;;;;;;;;1.00;1.00;;;;;;;;4901758;28;45301;-68
2022/09/19 05:06:14;;;;;;;;;0.00;0.00;;;;;;;;4901819;28;45293;-68
2022/09/19 05:08:40;;;;;;;;;1.00;1.00;;;;;;;;4901834;28;45557;-68
2022/09/19 05:11:06;;;;;;;;;1.67;1.67;;;;;;;;4901777;28;45548;-69
2022/09/19 05:13:33;;;;;;;;;1.00;1.00;;;;;;;;4901750;28;45403;-68
2022/09/19 05:16:00;;;;;;;;;2.00;1.00;;;;;;;;4901978;28;46032;-70
2022/09/19 05:18:26;;;;;;;;;0.50;0.00;;;;;;;;4901033;28;45240;-70
2022/09/19 05:20:52;;;;;;;;;0.00;0.00;;;;;;;;4900159;29;46360;-70
2022/09/19 05:23:18;;;;;;;;;0.75;0.00;;;;;;;;4901455;28;45330;-68
2022/09/19 05:25:43;;;;;;;;;1.00;1.00;;;;;;;;4901654;29;45215;-67
2022/09/19 05:28:09;;;;;;;;;1.00;1.00;;;;;;;;4901970;29;45223;-68
2022/09/19 05:30:35;;;;;;;;;1.00;1.00;;;;;;;;4901093;28;46949;-68
2022/09/19 05:33:02;;;;;;;;;1.00;1.00;;;;;;;;4901280;28;45487;-68
2022/09/19 05:35:27;;;;;;;;;9.67;8.33;;;;;;;;4900472;28;45396;-71
2022/09/19 05:37:52;;;;;;;;;3.25;1.75;;;;;;;;4901450;29;45804;-70
2022/09/19 05:40:18;;;;;;;;;2.00;1.00;;;;;;;;4901260;29;46479;-70
2022/09/19 05:42:46;;;;;;;;;7.67;6.00;;;;;;;;4901242;28;45383;-71
2022/09/19 05:45:12;;;;;;;;;1.00;1.00;;;;;;;;4901253;28;45270;-70
2022/09/19 05:47:39;;;;;;;;;2.00;1.67;;;;;;;;4901420;28;45363;-68
2022/09/19 05:50:04;;;;;;;;;3.00;1.25;;;;;;;;4900034;28;47331;-70
2022/09/19 05:55:13;;;;;;;;;4.75;1.75;;;;;;;;4901126;29;45395;-70
2022/09/19 05:57:39;;;;;;;;;3.00;2.00;;;;;;;;4901435;29;45426;-70
2022/09/19 06:00:05;;;;;;;;;2.75;0.75;;;;;;;;4900795;29;46190;-70
2022/09/19 06:02:31;;;;;;;;;4.75;1.75;;;;;;;;4890715;28;45469;-70
2022/09/19 06:04:57;;;;;;;;;2.00;1.00;;;;;;;;4900225;28;45365;-72
2022/09/19 06:07:23;;;;;;;;;3.00;2.25;;;;;;;;4901060;29;45408;-72
2022/09/19 06:09:52;;;;;;;;;5.67;4.00;;;;;;;;4900865;28;47000;-73
2022/09/19 06:12:17;;;;;;;;;4.67;3.00;;;;;;;;4900767;28;45437;-72
2022/09/19 06:14:43;;;;;;;;;2.00;1.75;;;;;;;;4900884;29;45365;-73
2022/09/19 06:17:08;;;;;;;;;5.33;2.33;;;;;;;;4900692;29;45432;-72
2022/09/19 06:19:33;;;;;;;;;5.67;4.33;;;;;;;;4899745;28;46617;-72
2022/09/19 06:21:58;;;;;;;;;5.33;5.33;;;;;;;;4900284;29;45296;-73
2022/09/19 06:24:24;;;;;;;;;4.00;2.33;;;;;;;;4900383;28;45245;-73
2022/09/19 06:26:53;;;;;;;;;5.67;3.00;;;;;;;;4900650;28;45488;-72
2022/09/19 06:29:18;;;;;;;;;9.33;7.00;;;;;;;;4900449;28;47628;-72
2022/09/19 06:31:44;;;;;;;;;1.25;1.25;;;;;;;;4900454;28;45360;-72
2022/09/19 06:34:10;;;;;;;;;12.33;9.67;;;;;;;;4900431;29;45422;-72
2022/09/19 06:36:35;;;;;;;;;3.00;3.00;;;;;;;;4899652;28;45497;-72
2022/09/19 06:39:00;;;;;;;;;2.25;1.75;;;;;;;;4900365;29;46611;-72
2022/09/19 06:41:26;;;;;;;;;4.25;3.00;;;;;;;;4900487;29;45244;-70
2022/09/19 06:43:51;;;;;;;;;2.00;1.50;;;;;;;;4900479;29;45303;-70
2022/09/19 06:46:17;;;;;;;;;1.00;1.00;;;;;;;;4900967;29;45249;-70
2022/09/19 06:48:43;;;;;;;;;3.00;3.00;;;;;;;;4900220;29;45440;-68
2022/09/19 06:51:08;;;;;;;;;2.75;1.00;;;;;;;;4900345;28;45369;-68
2022/09/19 06:53:33;;;;;;;;;7.00;7.00;;;;;;;;4900412;29;45231;-68
2022/09/19 06:55:59;;;;;;;;;2.00;1.25;;;;;;;;4900545;29;45471;-68
2022/09/19 06:58:25;;;;;;;;;4.00;2.00;;;;;;;;4898749;29;46440;-70
2022/09/19 07:00:50;;;;;;;;;1.00;1.00;;;;;;;;4900155;29;45296;-71
2022/09/19 07:03:16;;;;;;;;;2.50;1.25;;;;;;;;4900480;29;45658;-68
2022/09/19 07:05:42;;;;;;;;;3.50;2.00;;;;;;;;4900237;28;45365;-68
2022/09/19 07:08:08;;;;;;;;;4.00;2.67;;;;;;;;4899006;28;46040;-69
2022/09/19 07:10:35;;;;;;;;;4.75;1.50;;;;;;;;4900294;29;45440;-69
2022/09/19 07:13:01;;;;;;;;;2.00;1.00;;;;;;;;4900118;29;45339;-69
2022/09/19 07:15:27;;;;;;;;;2.25;2.25;;;;;;;;4899539;28;45244;-68
2022/09/19 07:17:55;;;;;;;;;1.00;0.75;;;;;;;;4900434;28;46803;-68
2022/09/19 07:20:20;;;;;;;;;2.00;1.75;;;;;;;;4902086;28;45427;-67
2022/09/19 07:22:47;;;;;;;;;1.00;1.00;;;;;;;;4916269;28;45255;-68
2022/09/19 07:25:13;;;;;;;;;1.00;1.00;;;;;;;;4922363;28;45340;-68
2022/09/19 07:27:42;;;;;;;;;5.00;2.00;;;;;;;;4921760;28;46614;-68
2022/09/19 07:30:07;;;;;;;;;2.75;1.00;;;;;;;;4921441;28;45334;-68
2022/09/19 07:32:33;;;;;;;;;1.67;1.00;;;;;;;;4921705;28;45235;-68
2022/09/19 07:34:58;;;;;;;;;1.75;1.00;;;;;;;;4922010;28;45416;-68
2022/09/19 07:37:23;;;;;;;;;6.75;3.00;;;;;;;;4921453;28;46973;-68
2022/09/19 07:39:48;;;;;;;;;3.33;2.00;;;;;;;;4920844;28;45336;-68
2022/09/19 07:42:14;;;;;;;;;2.67;2.00;;;;;;;;4921482;28;45262;-67
2022/09/19 07:44:39;;;;;;;;;3.67;3.00;;;;;;;;4921716;28;45440;-68
2022/09/19 07:49:48;;;;;;;;;5.33;2.67;;;;;;;;4921496;28;45368;-68
2022/09/19 07:52:13;;;;;;;;;8.33;8.33;;;;;;;;4921577;28;45483;-69
2022/09/19 07:54:38;;;;;;;;;2.67;2.67;;;;;;;;4922086;28;45318;-68
2022/09/19 07:57:04;;;;;;;;;3.00;1.67;;;;;;;;4921465;28;47310;-68
2022/09/19 07:59:29;;;;;;;;;3.00;0.50;;;;;;;;4921379;28;45207;-68
2022/09/19 08:01:54;;;;;;;;;5.33;2.00;;;;;;;;4921649;28;45437;-68
2022/09/19 08:04:19;;;;;;;;;2.00;2.00;;;;;;;;4921414;28;45206;-68
2022/09/19 08:06:45;;;;;;;;;1.67;1.67;;;;;;;;4921505;28;46477;-69
2022/09/19 08:09:10;;;;;;;;;2.00;2.00;;;;;;;;4921395;28;45314;-69
2022/09/19 08:11:36;;;;;;;;;1.00;1.00;;;;;;;;4921377;28;45460;-68
2022/09/19 08:14:01;;;;;;;;;0.50;0.50;;;;;;;;4921571;28;45380;-68
2022/09/19 08:16:27;;;;;;;;;4.33;1.33;;;;;;;;4921174;28;47009;-69
2022/09/19 08:18:52;;;;;;;;;1.33;1.33;;;;;;;;4921096;28;45349;-69
2022/09/19 08:21:19;;;;;;;;;1.25;1.25;;;;;;;;4920720;28;45366;-68
2022/09/19 08:23:45;;;;;;;;;1.00;0.75;;;;;;;;4921184;28;45603;-68
2022/09/19 08:26:10;;;;;;;;;3.75;1.00;;;;;;;;4921257;28;46315;-69
2022/09/19 08:28:35;;;;;;;;;0.75;0.75;;;;;;;;4920654;28;45373;-69
2022/09/19 08:31:00;;;;;;;;;3.00;1.00;;;;;;;;4921149;28;45394;-69
2022/09/19 08:33:26;;;;;;;;;5.25;1.25;;;;;;;;4921085;28;45441;-69
2022/09/19 08:35:51;;;;;;;;;2.00;1.50;;;;;;;;4920790;28;46359;-68
2022/09/19 08:38:17;;;;;;;;;1.00;1.00;;;;;;;;4920683;28;45637;-68
2022/09/19 08:40:48;;;;;;;;;3.33;2.33;;;;;;;;4921103;28;45313;-69
2022/09/19 08:43:16;;;;;;;;;1.00;1.00;;;;;;;;4921368;28;45531;-68
2022/09/19 08:45:44;;;;;;;;;4.00;1.25;;;;;;;;4920607;28;45510;-68
2022/09/19 08:48:13;;;;;;;;;4.00;0.50;;;;;;;;4920642;28;45310;-69
2022/09/19 08:50:40;;;;;;;;;2.00;1.50;;;;;;;;4920895;28;45397;-69
2022/09/19 08:53:09;;;;;;;;;5.00;1.67;;;;;;;;4920857;28;45449;-69
2022/09/19 08:55:35;;;;;;;;;3.00;2.00;;;;;;;;4920117;28;46259;-69
2022/09/19 08:58:03;;;;;;;;;3.50;2.00;;;;;;;;4920681;28;45318;-69
2022/09/19 09:00:32;;;;;;;;;0.75;0.75;;;;;;;;4919252;28;45370;-68
2022/09/19 09:03:23;;;;;;;;;0.50;0.00;;;;;;;;4920785;28;45301;-68
2022/09/19 09:06:09;;;;;;;;;0.25;0.25;;;;;;;;4917175;28;46292;-68
2022/09/19 09:08:48;;;;;;;;;0.25;0.25;;;;;;;;4920270;28;45437;-67
2022/09/19 09:11:13;;;;;;;;;1.00;1.00;;;;;;;;4920846;28;45332;-68
2022/09/19 09:13:51;;;;;;;;;2.00;1.00;;;;;;;;4903163;28;45325;-67
2022/09/19 09:16:24;;;;;;;;;1.75;1.00;;;;;;;;4920286;28;46604;-69
2022/09/19 09:18:52;;;;;;;;;0.00;0.00;;;;;;;;4920203;28;45270;-67
2022/09/19 09:21:31;;;;;;;;;0.00;0.00;;;;;;;;4920297;28;45283;-67
2022/09/19 09:24:03;;;;;;;;;0.00;0.00;;;;;;;;4920483;28;45317;-69
2022/09/19 09:26:30;;;;;;;;;1.00;0.75;;;;;;;;4920055;28;45472;-68
2022/09/19 09:28:58;;;;;;;;;0.00;0.00;;;;;;;;4920504;28;45350;-67
2022/09/19 09:31:31;;;;;;;;;1.50;1.25;;;;;;;;4919993;28;45416;-67
2022/09/19 09:34:02;;;;;;;;;2.00;1.00;;;;;;;;4920304;28;45353;-67
2022/09/19 09:36:42;;;;;;;;;0.75;0.75;;;;;;;;4919793;28;47008;-68
2022/09/19 09:39:08;;;;;;;;;1.00;1.00;;;;;;;;4919279;28;45354;-69
2022/09/19 09:41:51;;;;;;;;;2.00;0.00;;;;;;;;4919671;28;45310;-67
2022/09/19 09:44:30;;;;;;;;;2.00;1.00;;;;;;;;4920190;28;45558;-67
2022/09/19 09:47:01;;;;;;;;;0.25;0.00;;;;;;;;4919938;28;47118;-69
2022/09/19 09:49:28;;;;;;;;;2.33;2.00;;;;;;;;4919905;28;45221;-68
2022/09/19 09:52:05;;;;;;;;;0.50;0.00;;;;;;;;4919914;28;45540;-67
2022/09/19 09:57:29;;;;;;;;;2.00;0.00;;;;;;;;4919559;28;45667;-67
2022/09/19 10:05:55;;;;;;;;;2.00;0.00;;;;;;;;4879416;29;45487;-68
2022/09/19 10:08:29;;;;;;;;;2.00;0.67;;;;;;;;4878290;29;45664;-70
2022/09/19 10:11:05;;;;;;;;;3.00;1.00;;;;;;;;4879516;29;45407;-69
2022/09/19 10:13:33;;;;;;;;;3.00;0.33;;;;;;;;4879451;29;45385;-69
2022/09/19 10:16:01;;;;;;;;;0.67;0.00;;;;;;;;4879673;29;45333;-68
2022/09/19 10:18:29;;;;;;;;;0.00;0.00;;;;;;;;4879411;29;45574;-68
2022/09/19 10:20:54;;;;;;;;;0.00;0.00;;;;;;;;4879072;29;45579;-67
2022/09/19 10:23:24;;;;;;;;;2.00;0.00;;;;;;;;4879165;29;45911;-68
2022/09/19 10:25:54;;;;;;;;;1.00;0.00;;;;;;;;4879527;29;45722;-68
2022/09/19 10:28:24;;;;;;;;;2.00;0.00;;;;;;;;4879275;29;45687;-68
2022/09/19 10:30:54;;;;;;;;;1.33;1.00;;;;;;;;4879206;29;45398;-69
2022/09/19 10:33:47;;;;;;;;;0.00;0.00;;;;;;;;4879375;29;45462;-70
2022/09/19 10:36:20;;;;;;;;;1.33;1.00;;;;;;;;4891522;28;45450;-69
2022/09/19 10:38:50;;;;;;;;;0.67;0.33;;;;;;;;4919245;28;46350;-69
2022/09/19 10:41:19;;;;;;;;;2.00;0.00;;;;;;;;4919158;28;45478;-69
2022/09/19 10:43:47;;;;;;;;;0.33;0.00;;;;;;;;4919208;28;45613;-69
2022/09/19 10:46:18;;;;;;;;;0.33;0.00;;;;;;;;4919532;28;45353;-69
2022/09/19 10:48:50;;;;;;;;;2.00;0.00;;;;;;;;4919151;28;45402;-71
2022/09/19 10:51:16;;;;;;;;;0.00;0.00;;;;;;;;4920332;28;45471;-69
2022/09/19 10:53:45;;;;;;;;;1.00;1.00;;;;;;;;4922581;28;45814;-69
2022/09/19 10:56:22;;;;;;;;;0.00;0.00;;;;;;;;4922719;28;45419;-69
2022/09/19 10:58:49;;;;;;;;;1.00;0.00;;;;;;;;4919946;28;46597;-69
2022/09/19 11:01:25;;;;;;;;;1.00;0.00;;;;;;;;4921734;28;45273;-70
2022/09/19 11:03:57;;;;;;;;;1.33;1.00;;;;;;;;4922624;28;45529;-69
2022/09/19 11:06:22;;;;;;;;;0.00;0.00;;;;;;;;4922481;28;45431;-70
2022/09/19 11:08:49;;;;;;;;;1.00;0.00;;;;;;;;4922240;28;46052;-69
2022/09/19 11:11:38;;;;;;;;;0.00;0.00;;;;;;;;4922358;28;45386;-69
2022/09/19 11:14:06;;;;;;;;;1.67;1.00;;;;;;;;4922502;28;45536;-68
2022/09/19 11:16:38;;;;;;;;;1.00;0.00;;;;;;;;4920097;28;45873;-68
2022/09/19 11:19:15;;;;;;;;;1.00;0.00;;;;;;;;4922331;28;46349;-69
2022/09/19 11:21:46;;;;;;;;;1.00;0.00;;;;;;;;4921918;28;45361;-68
2022/09/19 11:24:18;;;;;;;;;0.00;0.00;;;;;;;;4922340;28;45499;-69
2022/09/19 11:27:10;;;;;;;;;1.67;0.00;;;;;;;;4919901;28;45398;-69
2022/09/19 11:29:49;;;;;;;;;2.00;0.00;;;;;;;;4921865;28;47725;-69
2022/09/19 11:32:34;;;;;;;;;3.00;0.00;;;;;;;;4922220;28;45400;-68
2022/09/19 11:34:59;;;;;;;;;0.00;0.00;;;;;;;;4922328;28;45301;-69
2022/09/19 11:37:37;;;;;;;;;1.00;0.00;;;;;;;;4921914;28;45497;-70
2022/09/19 11:40:11;;;;;;;;;1.00;1.00;;;;;;;;4922078;28;47073;-69
2022/09/19 11:42:50;;;;;;;;;0.33;0.33;;;;;;;;4921969;28;45562;-70
2022/09/19 11:45:16;;;;;;;;;2.00;0.00;;;;;;;;4922380;28;45309;-68
2022/09/19 11:48:01;;;;;;;;;0.67;0.67;;;;;;;;4922412;28;45311;-70
2022/09/19 11:50:32;;;;;;;;;1.00;1.00;;;;;;;;4921817;28;45320;-69
2022/09/19 11:53:18;;;;;;;;;0.00;0.00;;;;;;;;4921854;28;45223;-69
2022/09/19 11:55:54;;;;;;;;;0.00;0.00;;;;;;;;4922190;28;45346;-69
2022/09/19 11:58:29;;;;;;;;;0.67;0.67;;;;;;;;4922207;28;45257;-70
2022/09/19 12:01:15;;;;;;;;;1.00;1.00;;;;;;;;4921716;28;46715;-68
2022/09/19 12:03:40;;;;;;;;;2.00;1.00;;;;;;;;4921187;28;45262;-70
2022/09/19 12:06:09;;;;;;;;;3.67;0.67;;;;;;;;4921862;28;45302;-68
2022/09/19 12:08:34;;;;;;;;;1.00;1.00;;;;;;;;4922125;28;45534;-68
2022/09/19 12:11:26;;;;;;;;;1.67;0.00;;;;;;;;4921659;28;45512;-69
2022/09/19 12:13:54;;;;;;;;;2.25;0.00;;;;;;;;4918910;28;45305;-68
2022/09/19 12:16:27;;;;;;;;;0.00;0.00;;;;;;;;4921796;28;45316;-69
2022/09/19 12:18:56;;;;;;;;;1.67;0.00;;;;;;;;4921949;28;45483;-68
2022/09/19 12:21:24;;;;;;;;;0.67;0.00;;;;;;;;4921085;28;45555;-68
2022/09/19 12:26:54;;;;;;;;;0.00;0.00;;;;;;;;4921542;28;45414;-69
2022/09/19 12:29:32;;;;;;;;;1.00;0.00;;;;;;;;4921663;28;45239;-70
2022/09/19 12:32:01;;;;;;;;;0.00;0.00;;;;;;;;4921336;28;46216;-69
2022/09/19 12:34:35;;;;;;;;;0.33;0.00;;;;;;;;4921231;28;45293;-69
2022/09/19 12:37:09;;;;;;;;;0.00;0.00;;;;;;;;4921489;28;45313;-69
2022/09/19 12:39:35;;;;;;;;;0.00;0.00;;;;;;;;4921401;28;45438;-69
2022/09/19 12:42:03;;;;;;;;;2.00;0.00;;;;;;;;4920891;28;45395;-69
2022/09/19 12:44:34;;;;;;;;;0.00;0.00;;;;;;;;4921194;28;45432;-69
2022/09/19 12:47:01;;;;;;;;;0.00;0.00;;;;;;;;4921219;28;45396;-68
2022/09/19 12:49:45;;;;;;;;;1.00;0.00;;;;;;;;4921518;28;45412;-68
2022/09/19 12:52:30;;;;;;;;;0.00;0.00;;;;;;;;4920865;28;46391;-70
2022/09/19 12:55:00;;;;;;;;;3.00;0.00;;;;;;;;4920948;28;45360;-69
2022/09/19 12:57:41;;;;;;;;;3.00;3.00;;;;;;;;4921021;28;45453;-69
2022/09/19 13:00:10;;;;;;;;;3.50;0.00;;;;;;;;4921211;28;45318;-69
2022/09/19 13:02:43;;;;;;;;;10.00;8.67;;;;;;;;4920614;28;46273;-69
2022/09/19 13:05:10;;;;;;;;;0.00;0.00;;;;;;;;4920830;28;45261;-69
2022/09/19 13:07:43;;;;;;;;;0.00;0.00;;;;;;;;4920790;28;45444;-68
2022/09/19 13:10:37;;;;;;;;;0.00;0.00;;;;;;;;4921181;28;45439;-69
2022/09/19 13:13:06;;;;;;;;;2.00;1.50;;;;;;;;4861895;29;47294;-70
2022/09/19 13:15:32;;;;;;;;;0.75;0.75;;;;;;;;4860868;29;45412;-68
2022/09/19 13:23:38;;;;;;;;;0.75;0.75;;;;;;;;4861537;29;45828;-69
2022/09/19 13:26:24;;;;;;;;;0.00;0.00;;;;;;;;4861922;29;45368;-69
2022/09/19 13:28:53;;;;;;;;;0.50;0.00;;;;;;;;4861925;29;45373;-69
2022/09/19 13:31:22;;;;;;;;;0.75;0.75;;;;;;;;4861977;29;45542;-69
2022/09/19 13:33:57;;;;;;;;;0.00;0.00;;;;;;;;4861703;29;46858;-68
2022/09/19 13:36:22;;;;;;;;;0.00;0.00;;;;;;;;4861443;29;45539;-68
2022/09/19 13:38:56;;;;;;;;;0.00;0.00;;;;;;;;4861835;29;45375;-69
2022/09/19 13:41:26;;;;;;;;;0.00;0.00;;;;;;;;4861729;29;45269;-69
2022/09/19 13:43:54;;;;;;;;;0.00;0.00;;;;;;;;4861587;29;46516;-69
2022/09/19 13:46:23;;;;;;;;;0.00;0.00;;;;;;;;4860967;29;45400;-70
2022/09/19 13:48:53;;;;;;;;;0.00;0.00;;;;;;;;4875257;28;45360;-68
2022/09/19 13:51:25;;;;;;;;;0.00;0.00;;;;;;;;4920570;28;45318;-69
2022/09/19 13:54:08;;;;;;;;;0.00;0.00;;;;;;;;4920139;28;46328;-68
2022/09/19 13:56:36;;;;;;;;;0.00;0.00;;;;;;;;4920185;28;45317;-69
2022/09/19 13:59:07;;;;;;;;;0.00;0.00;;;;;;;;4920197;28;45439;-69
2022/09/19 14:01:41;;;;;;;;;0.75;0.00;;;;;;;;4920397;28;45484;-68
2022/09/19 14:07:02;;;;;;;;;0.00;0.00;;;;;;;;4920067;28;45392;-69
2022/09/19 14:09:28;;;;;;;;;1.00;1.00;;;;;;;;4918971;28;45495;-68
2022/09/19 14:11:55;;;;;;;;;0.00;0.00;;;;;;;;4920283;28;45353;-69
2022/09/19 14:14:40;;;;;;;;;0.00;0.00;;;;;;;;4919868;28;47370;-69
2022/09/19 14:17:18;;;;;;;;;0.00;0.00;;;;;;;;4920021;28;45296;-69
2022/09/19 14:19:48;;;;;;;;;0.50;0.25;;;;;;;;4920066;28;45344;-69
2022/09/19 14:22:37;;;;;;;;;0.00;0.00;;;;;;;;4919787;28;45310;-69
2022/09/19 14:25:04;;;;;;;;;2.00;0.50;;;;;;;;4919683;28;46549;-69
2022/09/19 14:27:36;;;;;;;;;0.00;0.00;;;;;;;;4922656;28;45349;-69
2022/09/19 14:30:06;;;;;;;;;2.00;0.50;;;;;;;;4923386;28;45265;-69
2022/09/19 14:32:40;;;;;;;;;0.25;0.00;;;;;;;;4923474;28;45342;-68
2022/09/19 14:35:20;;;;;;;;;0.00;0.00;;;;;;;;4923118;28;45257;-70
2022/09/19 14:37:46;;;;;;;;;0.00;0.00;;;;;;;;4923035;28;45637;-71
2022/09/19 14:40:30;;;;;;;;;0.00;0.00;;;;;;;;4923231;28;45340;-70
2022/09/19 14:43:01;;;;;;;;;1.00;1.00;;;;;;;;4922952;28;45629;-70
2022/09/19 14:45:29;;;;;;;;;1.00;0.00;;;;;;;;4922865;28;46300;-70
2022/09/19 14:48:01;;;;;;;;;1.00;0.00;;;;;;;;4922880;28;45416;-69
2022/09/19 14:50:35;;;;;;;;;0.00;0.00;;;;;;;;4923117;28;45381;-69
2022/09/19 14:53:04;;;;;;;;;2.00;0.00;;;;;;;;4923179;28;45274;-70
2022/09/19 14:55:40;;;;;;;;;1.00;0.00;;;;;;;;4922653;28;46089;-70
2022/09/19 14:58:20;;;;;;;;;0.00;0.00;;;;;;;;4922732;28;45512;-69
2022/09/19 15:00:55;;;;;;;;;0.75;0.00;;;;;;;;4922876;28;45319;-70
2022/09/19 15:03:20;;;;;;;;;1.00;0.00;;;;;;;;4923018;28;45340;-69
2022/09/19 15:05:50;;;;;;;;;0.00;0.00;;;;;;;;4922534;28;47281;-69
2022/09/19 15:08:33;;;;;;;;;0.00;0.00;;;;;;;;4922628;28;45428;-69
2022/09/19 15:11:03;;;;;;;;;0.00;0.00;;;;;;;;4922669;28;45365;-69
2022/09/19 15:13:28;;;;;;;;;1.75;0.00;;;;;;;;4922911;28;45440;-69
2022/09/19 15:16:00;;;;;;;;;0.00;0.00;;;;;;;;4922512;28;46351;-70
2022/09/19 15:18:28;;;;;;;;;0.00;0.00;;;;;;;;4922553;28;45341;-70
2022/09/19 15:20:56;;;;;;;;;3.00;2.67;;;;;;;;4922648;28;45457;-69
2022/09/19 15:23:23;;;;;;;;;2.25;0.75;;;;;;;;4922471;28;45257;-69